LFMV/AVN METAR and TAF weather

Enter ICAO airport designator
Station Type Date Time Source
LFMV METAR 2022/12/08 13:30 UTC NOAA

LFMV 081330Z AUTO 02004KT 360V070 9999 OVC030 06/02 Q1008 NOSIG


Station Type Date Time Source
LFMV Decoded METAR 2022/12/08 13:30 UTC NOAA

Station name not available
Dec 08, 2022 - 08:30 AM EST / 2022.12.08 1330 UTC
Wind: from the NNE (020 degrees) at 5 MPH (4 KT) (direction variable):0
Visibility: greater than 7 mile(s):0
Sky conditions: overcast
Temperature: 42 F (6 C)
Dew Point: 35 F (2 C)
Relative Humidity: 75%
Pressure (altimeter): 29.77 in. Hg (1008 hPa)
ob: LFMV 081330Z AUTO 02004KT 360V070 9999 OVC030 06/02 Q1008 NOSIG
cycle: 13

Station Type Date Time Source
LFMV TAF 2022/12/08 09:00 UTC NOAA

TAF LFMV 080800Z 0809/0909 VRB02KT CAVOK
BECMG 0816/0818 RA
BECMG 0820/0822 11015KT 3000 RA BKN014 OVC030
BECMG 0903/0905 34008KT
BECMG 0905/0907 BKN070

Example: see airport list